createdAt,value
2023-01-23T00:00:03.342Z,5.25
2023-01-23T00:02:39.821Z,5.28
2023-01-23T00:05:08.556Z,5.29
2023-01-23T00:07:36.372Z,5.28
2023-01-23T00:10:04.308Z,5.24
2023-01-23T00:12:33.478Z,5.26
2023-01-23T00:15:01.205Z,5.25
2023-01-23T00:17:29.421Z,5.22
2023-01-23T00:19:58.300Z,5.27
2023-01-23T00:22:26.112Z,5.27
2023-01-23T00:24:54.038Z,5.26
2023-01-23T00:27:21.780Z,5.22
2023-01-23T00:29:53.442Z,5.24
2023-01-23T00:32:21.797Z,5.24
2023-01-23T00:34:49.620Z,5.27
2023-01-23T00:37:17.688Z,5.24
2023-01-23T00:39:45.931Z,5.24
2023-01-23T00:42:13.714Z,5.28
2023-01-23T00:44:41.467Z,5.31
2023-01-23T00:47:10.571Z,5.28
2023-01-23T00:49:38.387Z,5.26
2023-01-23T00:52:06.276Z,5.28
2023-01-23T00:54:34.016Z,5.22
2023-01-23T00:57:01.848Z,5.30
2023-01-23T00:59:29.675Z,5.27
2023-01-23T01:01:57.503Z,5.19
2023-01-23T01:04:26.689Z,5.16
2023-01-23T01:06:54.517Z,5.16
2023-01-23T01:09:24.811Z,5.14
2023-01-23T01:11:52.914Z,5.15
2023-01-23T01:14:20.741Z,5.12
2023-01-23T01:16:49.082Z,5.14
2023-01-23T01:19:19.099Z,5.09
2023-01-23T01:21:48.543Z,5.16
2023-01-23T01:24:16.308Z,5.17
2023-01-23T01:26:44.021Z,5.14
2023-01-23T01:29:11.725Z,5.18
2023-01-23T01:31:39.636Z,5.16
2023-01-23T01:34:07.493Z,5.19
2023-01-23T01:36:35.288Z,5.19
2023-01-23T01:39:04.780Z,5.20
2023-01-23T01:41:33.225Z,5.21
2023-01-23T01:44:00.979Z,5.20
2023-01-23T01:46:30.617Z,5.21
2023-01-23T01:49:06.457Z,5.19
2023-01-23T01:51:38.159Z,5.19
2023-01-23T01:54:12.866Z,5.21
2023-01-23T01:56:45.728Z,5.18
2023-01-23T01:59:14.487Z,5.13
2023-01-23T02:01:45.929Z,5.10
2023-01-23T02:04:13.832Z,5.06
2023-01-23T02:06:41.811Z,5.08
2023-01-23T02:09:18.677Z,5.10
2023-01-23T02:11:47.650Z,5.10
2023-01-23T02:14:15.457Z,5.11
2023-01-23T02:16:50.440Z,5.07
2023-01-23T02:19:30.942Z,5.05
2023-01-23T02:22:08.859Z,5.07
2023-01-23T02:24:45.165Z,5.08
2023-01-23T02:27:14.312Z,5.11
2023-01-23T02:29:45.871Z,4.99
2023-01-23T02:32:15.310Z,5.08
2023-01-23T02:34:44.393Z,5.09
2023-01-23T02:37:14.533Z,5.10
2023-01-23T02:39:42.303Z,5.10
2023-01-23T02:42:14.332Z,5.12
2023-01-23T02:44:47.138Z,5.10
2023-01-23T02:47:18.518Z,5.11
2023-01-23T02:49:46.339Z,5.10
2023-01-23T02:52:15.104Z,5.05
2023-01-23T02:54:42.837Z,5.07
2023-01-23T02:57:11.223Z,5.08
2023-01-23T02:59:58.534Z,5.07
2023-01-23T03:02:27.768Z,5.03
2023-01-23T03:04:55.601Z,5.00
2023-01-23T03:07:23.356Z,4.98
2023-01-23T03:09:51.079Z,4.96
2023-01-23T03:12:18.862Z,4.86
2023-01-23T03:14:48.545Z,4.82
2023-01-23T03:17:16.372Z,4.80
2023-01-23T03:19:44.130Z,4.78
2023-01-23T03:22:11.950Z,4.76
2023-01-23T03:24:40.266Z,4.72
2023-01-23T03:27:08.438Z,4.74
2023-01-23T03:30:01.739Z,4.76
2023-01-23T03:32:31.960Z,4.76
2023-01-23T03:35:00.260Z,4.73
2023-01-23T03:37:28.911Z,4.68
2023-01-23T03:40:15.538Z,4.65
2023-01-23T03:42:44.003Z,4.60
2023-01-23T03:45:15.084Z,4.58
2023-01-23T03:47:44.583Z,4.60
2023-01-23T03:50:12.367Z,4.60
2023-01-23T03:52:40.938Z,4.58
2023-01-23T03:55:10.302Z,4.62
2023-01-23T03:57:38.900Z,4.65
2023-01-23T04:00:32.879Z,4.68
2023-01-23T04:03:06.873Z,4.67
2023-01-23T04:05:34.763Z,4.68
2023-01-23T04:08:03.419Z,4.71
2023-01-23T04:10:31.584Z,4.73
2023-01-23T04:13:04.949Z,4.75
2023-01-23T04:15:33.301Z,4.75
2023-01-23T04:18:02.547Z,4.74
2023-01-23T04:20:32.271Z,4.69
2023-01-23T04:23:00.391Z,4.65
2023-01-23T04:25:29.632Z,4.61
2023-01-23T04:27:57.696Z,4.57
2023-01-23T04:30:25.895Z,4.59
2023-01-23T04:32:53.821Z,4.61
2023-01-23T04:35:21.632Z,4.65
2023-01-23T04:37:50.724Z,4.64
2023-01-23T04:40:19.138Z,4.64
2023-01-23T04:42:54.575Z,4.62
2023-01-23T04:45:45.449Z,4.60
2023-01-23T04:48:39.361Z,4.55
2023-01-23T04:51:07.516Z,4.46
2023-01-23T04:53:37.525Z,4.45
2023-01-23T04:56:05.883Z,4.41
2023-01-23T04:58:34.220Z,4.39
2023-01-23T05:01:05.995Z,4.35
2023-01-23T05:03:35.875Z,4.31
2023-01-23T05:06:03.598Z,4.28
2023-01-23T05:08:31.367Z,4.22
2023-01-23T05:11:15.548Z,4.18
2023-01-23T05:13:43.363Z,4.16
2023-01-23T05:16:11.200Z,4.11
2023-01-23T05:19:11.606Z,4.09
2023-01-23T05:21:39.463Z,4.05
2023-01-23T05:24:11.444Z,4.06
2023-01-23T05:26:40.574Z,4.04
2023-01-23T05:29:08.832Z,4.00
2023-01-23T05:31:41.473Z,3.99
2023-01-23T05:34:45.204Z,3.95
2023-01-23T05:37:25.727Z,3.93
2023-01-23T05:39:57.212Z,3.90
2023-01-23T05:42:28.327Z,3.89
2023-01-23T05:45:14.941Z,3.86
2023-01-23T05:47:44.287Z,3.85
2023-01-23T05:50:15.776Z,3.82
2023-01-23T05:52:45.075Z,3.75
2023-01-23T05:55:13.926Z,3.77
2023-01-23T05:57:43.788Z,3.79
2023-01-23T06:00:40.383Z,3.76
2023-01-23T06:03:28.140Z,3.72
2023-01-23T06:06:07.793Z,3.70
2023-01-23T06:08:35.641Z,3.67
2023-01-23T06:11:04.719Z,3.60
2023-01-23T06:13:33.867Z,3.66
2023-01-23T06:16:01.682Z,3.63
2023-01-23T06:18:29.475Z,3.60
2023-01-23T06:21:01.580Z,3.60
2023-01-23T06:23:30.256Z,3.45
2023-01-23T06:26:01.726Z,3.54
2023-01-23T06:28:29.938Z,3.54
2023-01-23T06:31:04.076Z,3.49
2023-01-23T06:33:40.443Z,3.50
2023-01-23T06:36:11.896Z,3.42
2023-01-23T06:38:39.873Z,3.41
2023-01-23T06:41:11.531Z,3.41
2023-01-23T06:43:42.631Z,3.38
2023-01-23T06:46:18.323Z,3.39
2023-01-23T06:48:46.311Z,3.42
2023-01-23T06:51:14.630Z,3.49
2023-01-23T06:53:45.112Z,3.44
2023-01-23T06:56:13.784Z,3.51
2023-01-23T06:58:45.479Z,3.62
2023-01-23T07:01:24.267Z,3.72
2023-01-23T07:04:12.203Z,3.78
2023-01-23T07:06:41.429Z,3.81
2023-01-23T07:09:09.891Z,3.88
2023-01-23T07:11:38.536Z,3.92
2023-01-23T07:14:07.440Z,3.85
2023-01-23T07:16:38.379Z,3.97
2023-01-23T07:19:06.510Z,3.98
2023-01-23T07:21:36.919Z,3.96
2023-01-23T07:24:05.062Z,3.97
2023-01-23T07:26:32.811Z,4.05
2023-01-23T07:29:00.691Z,4.14
2023-01-23T07:31:28.478Z,4.17
2023-01-23T07:33:57.543Z,4.21
2023-01-23T07:36:25.243Z,4.28
2023-01-23T07:38:52.930Z,4.33
2023-01-23T07:41:20.743Z,4.40
2023-01-23T07:43:48.517Z,4.39
2023-01-23T07:46:16.274Z,4.41
2023-01-23T07:48:43.958Z,4.47
2023-01-23T07:51:13.100Z,4.44
2023-01-23T07:53:40.890Z,4.40
2023-01-23T07:56:09.100Z,4.47
2023-01-23T07:58:36.892Z,4.48
2023-01-23T08:01:09.617Z,4.49
2023-01-23T08:03:37.445Z,4.48
2023-01-23T08:06:05.599Z,4.51
2023-01-23T08:08:34.818Z,4.51
2023-01-23T08:11:05.303Z,4.52
2023-01-23T08:13:33.253Z,4.54
2023-01-23T08:16:01.268Z,4.55
2023-01-23T08:18:31.183Z,4.60
2023-01-23T08:21:00.936Z,4.65
2023-01-23T08:23:30.744Z,4.72
2023-01-23T08:26:01.923Z,4.70
2023-01-23T08:28:29.739Z,4.75
2023-01-23T08:31:01.401Z,4.73
2023-01-23T08:33:29.189Z,4.74
2023-01-23T08:35:59.203Z,4.79
2023-01-23T08:38:27.375Z,4.83
2023-01-23T08:40:56.243Z,4.89
2023-01-23T08:43:25.515Z,4.86
2023-01-23T08:45:55.092Z,4.88
2023-01-23T08:48:25.098Z,4.87
2023-01-23T08:50:59.641Z,4.84
2023-01-23T08:53:27.336Z,4.89
2023-01-23T08:55:55.232Z,4.93
2023-01-23T08:58:23.165Z,4.94
2023-01-23T09:00:52.299Z,4.94
2023-01-23T09:03:20.199Z,4.98
2023-01-23T09:05:48.056Z,5.01
2023-01-23T09:08:16.259Z,5.06
2023-01-23T09:10:44.025Z,5.06
2023-01-23T09:13:11.904Z,5.11
2023-01-23T09:15:40.130Z,5.12
2023-01-23T09:18:09.226Z,5.13
2023-01-23T09:20:39.104Z,5.12
2023-01-23T09:23:06.800Z,5.16
2023-01-23T09:25:34.556Z,5.17
2023-01-23T09:28:02.276Z,5.18
2023-01-23T09:30:30.158Z,5.21
2023-01-23T09:32:57.905Z,5.21
2023-01-23T09:35:27.146Z,5.22
2023-01-23T09:38:01.103Z,5.24
2023-01-23T09:40:31.876Z,5.26
2023-01-23T09:43:09.599Z,5.29
2023-01-23T09:45:39.241Z,5.29
2023-01-23T09:48:19.942Z,5.32
2023-01-23T09:50:56.392Z,5.26
2023-01-23T09:53:27.622Z,5.29
2023-01-23T09:56:01.962Z,5.31
2023-01-23T09:58:35.933Z,5.34
2023-01-23T10:01:03.915Z,5.32
2023-01-23T10:03:33.127Z,5.39
2023-01-23T10:06:15.330Z,5.43
2023-01-23T10:08:54.599Z,5.46
2023-01-23T10:11:30.610Z,5.48
2023-01-23T10:14:17.511Z,5.49
2023-01-23T10:17:01.438Z,5.50
2023-01-23T10:19:45.643Z,5.51
2023-01-23T10:22:30.570Z,5.49
2023-01-23T10:24:59.631Z,5.51
2023-01-23T10:27:34.756Z,5.50
2023-01-23T10:30:06.127Z,5.44
2023-01-23T10:32:51.768Z,5.48
2023-01-23T10:35:25.036Z,5.50
2023-01-23T10:38:01.354Z,5.54
2023-01-23T10:40:46.732Z,5.60
2023-01-23T10:43:16.430Z,5.58
2023-01-23T10:45:45.930Z,5.59
2023-01-23T10:48:40.030Z,5.64
2023-01-23T10:51:26.848Z,5.69
2023-01-23T10:54:07.234Z,5.70
2023-01-23T10:56:38.470Z,5.71
2023-01-23T10:59:08.245Z,5.80
2023-01-23T11:01:38.783Z,5.82
2023-01-23T11:04:13.034Z,5.89
2023-01-23T11:06:40.819Z,5.92
2023-01-23T11:09:21.396Z,5.93
2023-01-23T11:12:01.595Z,5.94
2023-01-23T11:14:29.609Z,5.99
2023-01-23T11:17:06.837Z,5.99
2023-01-23T11:19:34.730Z,6.04
2023-01-23T11:22:05.508Z,6.05
2023-01-23T11:24:41.240Z,6.07
2023-01-23T11:27:20.153Z,6.07
2023-01-23T11:30:31.008Z,6.12
2023-01-23T11:33:00.616Z,6.14
2023-01-23T11:35:50.916Z,6.13
2023-01-23T11:38:30.605Z,6.12
2023-01-23T11:41:00.317Z,6.17
2023-01-23T11:43:28.043Z,6.18
2023-01-23T11:46:11.369Z,6.18
2023-01-23T11:49:01.602Z,6.20
2023-01-23T11:51:37.526Z,6.19
2023-01-23T11:54:22.089Z,6.21
2023-01-23T11:57:00.527Z,6.19
2023-01-23T11:59:50.617Z,6.22
2023-01-23T12:02:54.063Z,6.25
2023-01-23T12:05:43.167Z,6.29
2023-01-23T12:08:20.645Z,6.26
2023-01-23T12:11:10.639Z,6.25
2023-01-23T12:13:54.313Z,6.25
2023-01-23T12:16:30.118Z,6.21
2023-01-23T12:19:14.111Z,6.25
2023-01-23T12:21:51.697Z,6.25
2023-01-23T12:24:34.308Z,6.29
2023-01-23T12:27:12.555Z,6.31
2023-01-23T12:30:24.650Z,6.32
2023-01-23T12:33:11.583Z,6.31
2023-01-23T12:35:48.399Z,6.30
2023-01-23T12:38:27.153Z,6.28
2023-01-23T12:41:09.114Z,6.31
2023-01-23T12:43:42.561Z,6.34
2023-01-23T12:46:15.183Z,6.32
2023-01-23T12:48:50.366Z,6.32
2023-01-23T12:51:22.037Z,6.33
2023-01-23T12:53:56.420Z,6.33
2023-01-23T12:56:28.332Z,6.31
2023-01-23T12:59:07.974Z,6.34
2023-01-23T13:01:53.181Z,6.39
2023-01-23T13:04:37.130Z,6.39
2023-01-23T13:07:14.955Z,6.34
2023-01-23T13:10:03.664Z,6.39
2023-01-23T13:12:32.658Z,6.35
2023-01-23T13:15:40.030Z,6.32
2023-01-23T13:18:23.719Z,6.21
2023-01-23T13:21:17.098Z,6.27
2023-01-23T13:23:45.164Z,6.25
2023-01-23T13:26:26.508Z,6.26
2023-01-23T13:28:55.601Z,6.24
2023-01-23T13:31:36.045Z,6.23
2023-01-23T13:34:33.620Z,6.22
2023-01-23T13:37:45.809Z,6.25
2023-01-23T13:40:16.655Z,6.25
2023-01-23T13:42:45.118Z,6.14
2023-01-23T13:45:26.922Z,6.22
2023-01-23T14:24:04.004Z,6.16
2023-01-23T14:26:34.148Z,6.12
2023-01-23T14:29:04.347Z,6.09
2023-01-23T14:31:35.321Z,6.20
2023-01-23T14:34:09.882Z,6.17
2023-01-23T14:36:39.368Z,6.16
2023-01-23T14:39:07.381Z,6.17
2023-01-23T14:41:41.621Z,6.16
2023-01-23T14:44:20.430Z,6.12
2023-01-23T14:46:53.873Z,6.08
2023-01-23T14:49:28.086Z,6.13
2023-01-23T14:51:58.206Z,6.08
2023-01-23T14:54:29.661Z,6.08
2023-01-23T14:57:04.385Z,6.00
2023-01-23T14:59:35.014Z,5.98
2023-01-23T15:02:21.091Z,5.94
2023-01-23T15:05:10.613Z,5.98
2023-01-23T15:07:44.723Z,5.92
2023-01-23T15:10:16.634Z,5.94
2023-01-23T15:12:50.457Z,5.93
2023-01-23T15:15:21.083Z,5.96
2023-01-23T15:17:51.121Z,5.92
2023-01-23T15:20:33.153Z,5.91
2023-01-23T15:23:21.571Z,5.91
2023-01-23T15:25:57.512Z,5.82
2023-01-23T15:28:33.438Z,5.67
2023-01-23T15:31:01.341Z,5.87
2023-01-23T15:33:34.698Z,5.85
2023-01-23T15:36:05.072Z,5.90
2023-01-23T15:38:33.331Z,5.89
2023-01-23T15:41:01.189Z,5.88
2023-01-23T15:43:29.105Z,5.91
2023-01-23T15:45:56.814Z,5.88
2023-01-23T15:48:24.627Z,5.82
2023-01-23T15:50:55.563Z,5.73
2023-01-23T15:53:23.393Z,5.82
2023-01-23T15:55:51.172Z,5.77
2023-01-23T15:58:18.892Z,5.81
2023-01-23T16:00:46.636Z,5.77
2023-01-23T16:03:14.942Z,5.81
2023-01-23T16:05:42.816Z,5.80
2023-01-23T16:08:19.676Z,5.80
2023-01-23T16:10:48.185Z,5.81
2023-01-23T16:13:15.985Z,5.80
2023-01-23T16:15:44.072Z,5.83
2023-01-23T16:18:11.819Z,5.81
2023-01-23T16:20:43.534Z,5.81
2023-01-23T16:23:18.879Z,5.81
2023-01-23T16:25:47.807Z,5.81
2023-01-23T16:28:17.100Z,5.77
2023-01-23T16:30:44.916Z,5.77
2023-01-23T16:33:13.008Z,5.79
2023-01-23T16:35:41.824Z,5.76
2023-01-23T16:38:19.942Z,5.77
2023-01-23T16:40:47.737Z,5.78
2023-01-23T16:43:15.469Z,5.79
2023-01-23T16:45:43.219Z,5.77
2023-01-23T16:48:18.233Z,5.75
2023-01-23T16:50:53.263Z,5.79
2023-01-23T16:53:26.135Z,5.80
2023-01-23T16:55:55.453Z,5.81
2023-01-23T16:58:26.751Z,5.78
2023-01-23T17:01:00.047Z,5.76
2023-01-23T17:03:31.191Z,5.76
2023-01-23T17:05:59.165Z,5.76
2023-01-23T17:08:29.285Z,5.72
2023-01-23T17:11:01.432Z,5.75
2023-01-23T17:13:33.607Z,5.73
2023-01-23T17:16:02.176Z,5.75
2023-01-23T17:18:32.914Z,5.74
2023-01-23T17:21:01.113Z,5.64
2023-01-23T17:23:30.948Z,5.73
2023-01-23T17:26:01.180Z,5.76
2023-01-23T17:28:30.010Z,5.74
2023-01-23T17:31:01.201Z,5.74
2023-01-23T17:33:32.589Z,5.76
2023-01-23T17:36:03.593Z,5.80
2023-01-23T17:38:34.627Z,5.77
2023-01-23T17:41:04.535Z,5.77
2023-01-23T17:43:32.350Z,5.76
2023-01-23T17:46:00.212Z,5.77
2023-01-23T17:48:30.397Z,5.79
2023-01-23T17:50:58.730Z,5.81
2023-01-23T17:53:27.805Z,5.77
2023-01-23T17:55:57.329Z,5.75
2023-01-23T17:58:25.810Z,5.72
2023-01-23T18:00:55.957Z,5.78
2023-01-23T18:03:24.782Z,5.73
2023-01-23T18:05:53.068Z,5.73
2023-01-23T18:08:22.650Z,5.74
2023-01-23T18:10:53.800Z,5.76
2023-01-23T18:13:35.162Z,5.76
2023-01-23T18:16:11.642Z,5.77
2023-01-23T18:18:41.890Z,5.77
2023-01-23T18:21:15.260Z,5.78
2023-01-23T18:23:43.678Z,5.78
2023-01-23T18:26:25.801Z,5.77
2023-01-23T18:29:06.725Z,5.82
2023-01-23T18:31:47.246Z,5.77
2023-01-23T18:34:24.739Z,5.77
2023-01-23T18:37:04.854Z,5.78
2023-01-23T18:39:47.012Z,5.77
2023-01-23T18:42:17.809Z,5.78
2023-01-23T18:44:53.599Z,5.80
2023-01-23T18:47:21.810Z,5.77
2023-01-23T18:49:49.983Z,5.75
2023-01-23T18:52:22.987Z,5.78
2023-01-23T18:54:56.025Z,5.75
2023-01-23T18:57:37.924Z,5.71
2023-01-23T19:00:14.841Z,5.79
2023-01-23T19:02:50.280Z,5.78
2023-01-23T19:05:29.834Z,5.74
2023-01-23T19:07:59.852Z,5.73
2023-01-23T19:10:32.521Z,5.76
2023-01-23T19:13:10.768Z,5.77
2023-01-23T19:15:48.044Z,5.76
2023-01-23T19:18:42.779Z,5.78
2023-01-23T19:21:20.339Z,5.79
2023-01-23T19:23:57.880Z,5.79
2023-01-23T19:26:27.723Z,5.75
2023-01-23T19:28:56.178Z,5.77
2023-01-23T19:31:27.549Z,5.77
2023-01-23T19:33:55.724Z,5.60
2023-01-23T19:36:24.895Z,5.72
2023-01-23T19:38:56.272Z,5.75
2023-01-23T19:41:26.688Z,5.75
2023-01-23T19:43:57.016Z,5.75
2023-01-23T19:46:29.590Z,5.77
2023-01-23T19:48:57.717Z,5.77
2023-01-23T19:51:27.328Z,5.81
2023-01-23T19:53:56.005Z,5.78
2023-01-23T19:56:23.994Z,5.83
2023-01-23T19:58:51.884Z,5.84
2023-01-23T20:01:23.849Z,5.84
2023-01-23T20:03:52.974Z,5.82
2023-01-23T20:06:20.795Z,5.86
2023-01-23T20:08:48.506Z,5.83
2023-01-23T20:11:16.229Z,5.83
2023-01-23T20:13:44.033Z,5.82
2023-01-23T20:16:18.388Z,5.83
2023-01-23T20:18:48.030Z,5.84
2023-01-23T20:21:18.730Z,5.85
2023-01-23T20:23:47.190Z,5.84
2023-01-23T20:26:15.631Z,5.86
2023-01-23T20:28:43.545Z,5.86
2023-01-23T20:31:13.427Z,5.84
2023-01-23T20:33:41.836Z,5.82
2023-01-23T20:36:11.315Z,5.82
2023-01-23T20:38:41.180Z,5.70
2023-01-23T20:41:11.574Z,5.86
2023-01-23T20:43:39.640Z,5.83
2023-01-23T20:46:08.889Z,5.75
2023-01-23T20:48:37.640Z,5.79
2023-01-23T20:51:09.589Z,5.83
2023-01-23T20:53:39.829Z,5.83
2023-01-23T20:56:11.207Z,5.80
2023-01-23T20:58:58.515Z,5.81
2023-01-23T21:01:28.092Z,5.81
2023-01-23T21:03:55.911Z,5.80
2023-01-23T21:06:23.791Z,5.82
2023-01-23T21:08:51.582Z,5.81
2023-01-23T21:11:21.081Z,5.81
2023-01-23T21:13:53.481Z,5.84
2023-01-23T21:16:21.428Z,5.82
2023-01-23T21:18:49.147Z,5.84
2023-01-23T21:21:19.496Z,5.86
2023-01-23T21:23:49.107Z,5.83
2023-01-23T21:26:17.517Z,5.78
2023-01-23T21:28:48.137Z,5.79
2023-01-23T21:31:18.380Z,5.82
2023-01-23T21:33:46.532Z,5.78
2023-01-23T21:36:17.740Z,5.80
2023-01-23T21:38:46.427Z,5.80
2023-01-23T21:41:14.796Z,5.81
2023-01-23T21:43:42.713Z,5.78
2023-01-23T21:46:11.840Z,5.80
2023-01-23T21:48:39.722Z,5.79
2023-01-23T21:51:09.797Z,5.79
2023-01-23T21:53:38.783Z,5.78
2023-01-23T21:56:07.598Z,5.80
2023-01-23T21:58:35.788Z,5.80
2023-01-23T22:01:25.208Z,5.84
2023-01-23T22:03:54.404Z,5.85
2023-01-23T22:06:22.225Z,5.84
2023-01-23T22:08:50.151Z,5.79
2023-01-23T22:11:17.945Z,5.82
2023-01-23T22:13:45.848Z,5.79
2023-01-23T22:16:13.637Z,5.77
2023-01-23T22:18:41.378Z,5.77
2023-01-23T22:21:10.942Z,5.81
2023-01-23T22:23:38.767Z,5.68
2023-01-23T22:26:09.021Z,5.79
2023-01-23T22:28:37.204Z,5.82
2023-01-23T22:31:10.093Z,5.79
2023-01-23T22:33:40.790Z,5.83
2023-01-23T22:36:14.745Z,5.82
2023-01-23T22:38:42.727Z,5.79
2023-01-23T22:41:14.042Z,5.83
2023-01-23T22:43:41.879Z,5.80
2023-01-23T22:46:13.788Z,5.77
2023-01-23T22:48:41.997Z,5.74
2023-01-23T22:51:16.168Z,5.80
2023-01-23T22:53:44.508Z,5.78
2023-01-23T22:56:13.897Z,5.74
2023-01-23T22:58:45.237Z,5.76
2023-01-23T23:01:13.293Z,5.81
2023-01-23T23:03:41.112Z,5.77
2023-01-23T23:06:12.752Z,5.80
2023-01-23T23:08:41.330Z,5.80
2023-01-23T23:11:10.675Z,5.81
2023-01-23T23:13:40.276Z,5.57
2023-01-23T23:16:10.066Z,5.83
2023-01-23T23:18:39.330Z,5.83
2023-01-23T23:21:09.968Z,5.73
2023-01-23T23:23:39.436Z,5.87
2023-01-23T23:26:10.063Z,5.86
2023-01-23T23:28:38.579Z,5.82
2023-01-23T23:31:07.460Z,5.81
2023-01-23T23:33:35.752Z,5.82
2023-01-23T23:36:03.527Z,5.84
2023-01-23T23:38:31.333Z,5.82
2023-01-23T23:41:02.629Z,5.82
2023-01-23T23:43:31.148Z,5.79
2023-01-23T23:46:00.770Z,5.84
2023-01-23T23:48:30.031Z,5.84
2023-01-23T23:51:00.707Z,5.86
2023-01-23T23:53:29.353Z,5.72
2023-01-23T23:55:57.460Z,5.85
2023-01-23T23:58:26.664Z,5.87
